Time;durP1;ratioP1;P1;durP2;ratioP2;P2;SDS_P1;SDS_P2;PMS_P1;PMS_P2;Temp;Humidity;BMP_temperature;BMP_pressure;BME280_temperature;BME280_humidity;BME280_pressure;Samples;Min_cycle;Max_cycle;Signal;HPM_P1;HPM_P2
2022/05/31 00:02:24;;;;;;;;;;;11.40;99.90;;;;;;5108548;28;19915;-65
2022/05/31 00:04:50;;;;;;;;;;;11.40;99.90;;;;;;5108694;28;19933;-65
2022/05/31 00:07:17;;;;;;;;;;;11.40;99.90;;;;;;5111210;28;19908;-65
2022/05/31 00:09:43;;;;;;;;;;;11.40;99.90;;;;;;5111669;28;19990;-65
2022/05/31 00:12:09;;;;;;;;;;;11.40;99.90;;;;;;5111773;28;19994;-65
2022/05/31 00:14:34;;;;;;;;;;;11.40;99.90;;;;;;5111614;28;19903;-64
2022/05/31 00:17:00;;;;;;;;;;;11.40;99.90;;;;;;5111701;28;19904;-65
2022/05/31 00:19:26;;;;;;;;;;;11.40;99.90;;;;;;5111539;28;19907;-65
2022/05/31 00:21:55;;;;;;;;;;;11.40;99.90;;;;;;5111452;28;19910;-64
2022/05/31 00:24:21;;;;;;;;;;;11.30;99.90;;;;;;5108693;28;20291;-64
2022/05/31 00:26:47;;;;;;;;;;;11.30;99.90;;;;;;5108193;28;20391;-64
2022/05/31 00:29:13;;;;;;;;;;;11.30;99.90;;;;;;5109826;28;19904;-64
2022/05/31 00:31:43;;;;;;;;;;;11.30;99.90;;;;;;5111466;27;20006;-64
2022/05/31 00:34:09;;;;;;;;;;;11.30;99.90;;;;;;5111442;28;19919;-64
2022/05/31 00:36:35;;;;;;;;;;;11.20;99.90;;;;;;5111351;28;20371;-64
2022/05/31 00:39:01;;;;;;;;;;;11.30;99.90;;;;;;5111291;28;19907;-65
2022/05/31 00:41:26;;;;;;;;;;;11.20;99.90;;;;;;5111128;28;19908;-64
2022/05/31 00:44:03;;;;;;;;;;;11.20;99.90;;;;;;5110924;28;19911;-64
2022/05/31 00:46:40;;;;;;;;;;;11.20;99.90;;;;;;5109817;28;19922;-64
2022/05/31 00:49:06;;;;;;;;;;;11.20;99.90;;;;;;5110960;28;19937;-65
2022/05/31 00:51:39;;;;;;;;;;;11.20;99.90;;;;;;5111136;28;19990;-64
2022/05/31 00:54:07;;;;;;;;;;;11.10;99.90;;;;;;5111043;28;19977;-64
2022/05/31 00:56:33;;;;;;;;;;;11.10;99.90;;;;;;5111165;28;19907;-64
2022/05/31 00:59:01;;;;;;;;;;;11.10;99.90;;;;;;5110693;28;19907;-65
2022/05/31 01:01:28;;;;;;;;;;;11.10;99.90;;;;;;5110428;28;19910;-64
2022/05/31 01:03:54;;;;;;;;;;;11.10;99.90;;;;;;5107621;28;20268;-65
2022/05/31 01:06:19;;;;;;;;;;;11.10;99.90;;;;;;5107311;28;20425;-64
2022/05/31 01:08:45;;;;;;;;;;;11.10;99.90;;;;;;5110679;28;19908;-64
2022/05/31 01:11:17;;;;;;;;;;;11.10;99.90;;;;;;5110682;28;19911;-64
2022/05/31 01:13:42;;;;;;;;;;;11.10;99.90;;;;;;5110759;28;20315;-64
2022/05/31 01:16:10;;;;;;;;;;;11.10;99.90;;;;;;5110722;28;19950;-65
2022/05/31 01:18:36;;;;;;;;;;;11.00;99.90;;;;;;5110239;28;19949;-64
2022/05/31 01:21:02;;;;;;;;;;;11.00;99.90;;;;;;5110341;28;19984;-65
2022/05/31 01:23:32;;;;;;;;;;;11.00;99.90;;;;;;5110508;28;19957;-65
2022/05/31 01:25:58;;;;;;;;;;;10.90;99.90;;;;;;5110688;28;19903;-64
2022/05/31 01:28:32;;;;;;;;;;;10.90;99.90;;;;;;5110326;28;19910;-65
2022/05/31 01:30:57;;;;;;;;;;;10.80;99.90;;;;;;5110650;28;19915;-64
2022/05/31 01:33:26;;;;;;;;;;;10.80;99.90;;;;;;5110042;28;20291;-64
2022/05/31 01:35:52;;;;;;;;;;;10.70;99.90;;;;;;5113035;28;19907;-64
2022/05/31 01:38:21;;;;;;;;;;;10.60;99.90;;;;;;5096233;28;19926;-64
2022/05/31 01:40:52;;;;;;;;;;;10.60;99.90;;;;;;5114588;28;19908;-64
2022/05/31 01:43:18;;;;;;;;;;;10.60;99.90;;;;;;5114422;28;19984;-64
2022/05/31 01:45:46;;;;;;;;;;;10.60;99.90;;;;;;5094509;28;19911;-63
2022/05/31 01:48:12;;;;;;;;;;;10.60;99.90;;;;;;5114879;28;19904;-64
2022/05/31 01:50:38;;;;;;;;;;;10.60;99.90;;;;;;5108827;28;19908;-64
2022/05/31 01:53:04;;;;;;;;;;;10.60;99.90;;;;;;5111177;28;19910;-65
2022/05/31 01:55:31;;;;;;;;;;;10.60;99.90;;;;;;5111172;28;19927;-64
2022/05/31 01:57:58;;;;;;;;;;;10.60;99.90;;;;;;5111043;28;19907;-64
2022/05/31 02:00:24;;;;;;;;;;;10.70;99.90;;;;;;5111231;28;19991;-64
2022/05/31 02:02:51;;;;;;;;;;;10.70;99.90;;;;;;5110964;28;20019;-64
2022/05/31 02:05:17;;;;;;;;;;;10.80;99.90;;;;;;5113367;28;19927;-64
2022/05/31 02:07:51;;;;;;;;;;;10.80;99.90;;;;;;5114234;28;19910;-65
2022/05/31 02:10:17;;;;;;;;;;;10.90;99.90;;;;;;5114080;28;19915;-65
2022/05/31 02:12:42;;;;;;;;;;;11.00;99.90;;;;;;5114000;28;19904;-65
2022/05/31 02:15:08;;;;;;;;;;;11.10;99.90;;;;;;5113534;28;19911;-64
2022/05/31 02:17:34;;;;;;;;;;;11.10;99.90;;;;;;5113707;28;19911;-64
2022/05/31 02:19:59;;;;;;;;;;;11.20;99.90;;;;;;5113549;28;20017;-65
2022/05/31 02:22:27;;;;;;;;;;;11.20;99.90;;;;;;5113650;28;19904;-64
2022/05/31 02:24:52;;;;;;;;;;;11.10;99.90;;;;;;5113703;28;19907;-64
2022/05/31 02:27:18;;;;;;;;;;;11.00;99.90;;;;;;5111098;28;19935;-64
2022/05/31 02:29:43;;;;;;;;;;;11.00;99.90;;;;;;5110101;28;20303;-64
2022/05/31 02:32:10;;;;;;;;;;;10.90;99.90;;;;;;5110334;28;20014;-64
2022/05/31 02:34:40;;;;;;;;;;;10.90;99.90;;;;;;5110247;28;19916;-64
2022/05/31 02:37:06;;;;;;;;;;;10.90;99.90;;;;;;5110356;28;19908;-65
2022/05/31 02:39:31;;;;;;;;;;;10.90;99.90;;;;;;5111021;28;19914;-64
2022/05/31 02:41:58;;;;;;;;;;;10.80;99.90;;;;;;5110398;28;19927;-64
2022/05/31 02:44:24;;;;;;;;;;;10.80;99.90;;;;;;5110125;28;19912;-64
2022/05/31 02:46:50;;;;;;;;;;;10.70;99.90;;;;;;5110497;28;19903;-64
2022/05/31 02:49:16;;;;;;;;;;;10.70;99.90;;;;;;5110424;28;19912;-65
2022/05/31 02:51:43;;;;;;;;;;;10.70;99.90;;;;;;5110430;28;20346;-65
2022/05/31 02:54:09;;;;;;;;;;;10.70;99.90;;;;;;5111651;28;20613;-64
2022/05/31 02:56:34;;;;;;;;;;;10.70;99.90;;;;;;5113117;27;19925;-64
2022/05/31 02:59:00;;;;;;;;;;;10.60;99.90;;;;;;5112984;28;19904;-64
2022/05/31 03:01:30;;;;;;;;;;;10.60;99.90;;;;;;5113121;27;19904;-64
2022/05/31 03:03:55;;;;;;;;;;;10.50;99.90;;;;;;5112849;28;20273;-64
2022/05/31 03:06:21;;;;;;;;;;;10.50;99.90;;;;;;5111661;28;20003;-63
2022/05/31 03:08:47;;;;;;;;;;;10.50;99.90;;;;;;5112688;28;19904;-64
2022/05/31 03:11:16;;;;;;;;;;;10.50;99.90;;;;;;5111070;27;20381;-64
2022/05/31 03:13:43;;;;;;;;;;;10.60;99.90;;;;;;5109761;28;20000;-64
2022/05/31 03:16:08;;;;;;;;;;;10.50;99.90;;;;;;5110487;28;19900;-64
2022/05/31 03:18:36;;;;;;;;;;;10.50;99.90;;;;;;5112412;28;19964;-64
2022/05/31 03:21:05;;;;;;;;;;;10.40;99.90;;;;;;5112558;28;20328;-64
2022/05/31 03:23:32;;;;;;;;;;;10.50;99.90;;;;;;5112756;28;19923;-64
2022/05/31 03:26:00;;;;;;;;;;;10.50;99.90;;;;;;5112497;28;19904;-64
2022/05/31 03:28:26;;;;;;;;;;;10.50;99.90;;;;;;5112522;28;19908;-64
2022/05/31 03:30:51;;;;;;;;;;;10.50;99.90;;;;;;5112485;28;19914;-64
2022/05/31 03:33:17;;;;;;;;;;;10.60;99.90;;;;;;5112480;28;19912;-64
2022/05/31 03:35:43;;;;;;;;;;;10.60;99.90;;;;;;5112227;28;19908;-64
2022/05/31 03:38:08;;;;;;;;;;;10.60;99.90;;;;;;5112387;28;19961;-64
2022/05/31 03:43:18;;;;;;;;;;;10.60;99.90;;;;;;5112122;28;19919;-64
2022/05/31 03:45:44;;;;;;;;;;;10.60;99.90;;;;;;5111902;28;19904;-64
2022/05/31 03:48:10;;;;;;;;;;;10.60;99.90;;;;;;5112068;28;19914;-64
2022/05/31 03:50:38;;;;;;;;;;;10.60;99.90;;;;;;5111826;28;19949;-64
2022/05/31 03:53:07;;;;;;;;;;;10.60;99.90;;;;;;5112058;28;19914;-64
2022/05/31 03:55:37;;;;;;;;;;;10.70;99.90;;;;;;5112013;28;20602;-64
2022/05/31 03:58:03;;;;;;;;;;;10.70;99.90;;;;;;5111404;28;19907;-64
2022/05/31 04:00:28;;;;;;;;;;;10.70;99.90;;;;;;5110630;28;19907;-65
2022/05/31 04:02:55;;;;;;;;;;;10.70;99.90;;;;;;5112024;28;20273;-64
2022/05/31 04:05:21;;;;;;;;;;;10.70;99.90;;;;;;5111541;28;20249;-64
2022/05/31 04:07:49;;;;;;;;;;;10.80;99.90;;;;;;5111722;28;19910;-65
2022/05/31 04:10:14;;;;;;;;;;;10.70;99.90;;;;;;5111667;28;19915;-65
2022/05/31 04:12:40;;;;;;;;;;;10.80;99.90;;;;;;5111775;28;19903;-65
2022/05/31 04:15:06;;;;;;;;;;;10.80;99.90;;;;;;5111418;28;19903;-65
2022/05/31 04:17:31;;;;;;;;;;;10.80;99.90;;;;;;5108572;28;20340;-65
2022/05/31 04:19:57;;;;;;;;;;;10.80;99.90;;;;;;5107941;28;19964;-65
2022/05/31 04:22:22;;;;;;;;;;;10.80;99.90;;;;;;5111048;28;19904;-65
2022/05/31 04:24:52;;;;;;;;;;;10.80;99.90;;;;;;5111242;28;19956;-65
2022/05/31 04:27:18;;;;;;;;;;;10.80;99.90;;;;;;5111655;28;19907;-65
2022/05/31 04:29:44;;;;;;;;;;;10.80;99.90;;;;;;5111257;28;19904;-65
2022/05/31 04:32:10;;;;;;;;;;;10.90;99.90;;;;;;5108837;28;19915;-65
2022/05/31 04:34:36;;;;;;;;;;;10.90;99.90;;;;;;5107876;28;19915;-65
2022/05/31 04:37:01;;;;;;;;;;;10.90;99.90;;;;;;5108543;28;19908;-65
2022/05/31 04:39:27;;;;;;;;;;;11.00;99.90;;;;;;5111439;28;19904;-65
2022/05/31 04:41:52;;;;;;;;;;;10.90;99.90;;;;;;5111168;28;19908;-65
2022/05/31 04:44:18;;;;;;;;;;;11.00;99.90;;;;;;5110846;28;19915;-65
2022/05/31 04:46:44;;;;;;;;;;;11.00;99.90;;;;;;5111027;28;19994;-65
2022/05/31 04:49:09;;;;;;;;;;;11.10;99.90;;;;;;5111044;28;19999;-64
2022/05/31 04:51:35;;;;;;;;;;;11.10;99.90;;;;;;5110698;28;20002;-65
2022/05/31 04:54:01;;;;;;;;;;;11.10;99.90;;;;;;5110993;28;19911;-64
2022/05/31 04:56:27;;;;;;;;;;;11.10;99.90;;;;;;5111043;28;20361;-64
2022/05/31 04:58:53;;;;;;;;;;;11.10;99.90;;;;;;5109615;28;19995;-64
2022/05/31 05:01:19;;;;;;;;;;;11.10;99.90;;;;;;5108873;28;19939;-65
2022/05/31 05:03:45;;;;;;;;;;;11.00;99.90;;;;;;5107849;27;20283;-66
2022/05/31 05:06:12;;;;;;;;;;;11.10;99.90;;;;;;5107617;28;19904;-64
2022/05/31 05:08:38;;;;;;;;;;;11.00;99.90;;;;;;5107762;28;19904;-63
2022/05/31 05:11:05;;;;;;;;;;;11.10;99.90;;;;;;5107233;28;19915;-65
2022/05/31 05:13:30;;;;;;;;;;;11.10;99.90;;;;;;5107707;28;20317;-66
2022/05/31 05:15:56;;;;;;;;;;;11.20;99.90;;;;;;5107509;28;19908;-64
2022/05/31 05:18:22;;;;;;;;;;;11.10;99.90;;;;;;5110341;28;19907;-65
2022/05/31 05:20:48;;;;;;;;;;;11.10;99.90;;;;;;5110513;28;19995;-64
2022/05/31 05:23:13;;;;;;;;;;;11.00;99.90;;;;;;5110390;28;20002;-63
2022/05/31 05:25:40;;;;;;;;;;;10.90;99.90;;;;;;5110728;28;20410;-64
2022/05/31 05:30:51;;;;;;;;;;;10.70;99.90;;;;;;5110320;28;19915;-62
2022/05/31 05:33:17;;;;;;;;;;;10.60;99.90;;;;;;5107127;28;19918;-62
2022/05/31 05:35:42;;;;;;;;;;;10.60;99.90;;;;;;5107481;28;20295;-63
2022/05/31 05:38:08;;;;;;;;;;;10.60;99.90;;;;;;5110452;28;20004;-62
2022/05/31 05:40:36;;;;;;;;;;;10.60;99.90;;;;;;5109823;28;20279;-63
2022/05/31 05:43:02;;;;;;;;;;;10.50;99.90;;;;;;5107750;28;19911;-63
2022/05/31 05:45:27;;;;;;;;;;;10.60;99.90;;;;;;5107320;28;19908;-63
2022/05/31 05:47:53;;;;;;;;;;;10.60;99.90;;;;;;5110064;28;19915;-63
2022/05/31 05:50:18;;;;;;;;;;;10.60;99.90;;;;;;5109763;28;19930;-64
2022/05/31 05:52:48;;;;;;;;;;;10.50;99.90;;;;;;5107462;28;19907;-62
2022/05/31 05:55:14;;;;;;;;;;;10.50;99.90;;;;;;5107648;28;19951;-63
2022/05/31 05:57:39;;;;;;;;;;;10.40;99.90;;;;;;5110123;28;20008;-62
2022/05/31 06:00:06;;;;;;;;;;;10.50;99.90;;;;;;5111126;28;19914;-62
2022/05/31 06:02:32;;;;;;;;;;;10.40;99.90;;;;;;5107706;28;19947;-63
2022/05/31 06:05:03;;;;;;;;;;;10.40;99.90;;;;;;5107382;28;19943;-62
2022/05/31 06:07:33;;;;;;;;;;;10.30;99.90;;;;;;5109341;28;19935;-62
2022/05/31 06:10:06;;;;;;;;;;;10.30;99.90;;;;;;5110438;28;19907;-63
2022/05/31 06:12:34;;;;;;;;;;;10.30;99.90;;;;;;5107970;28;19904;-64
2022/05/31 06:15:08;;;;;;;;;;;10.40;99.90;;;;;;5107180;28;19945;-62
2022/05/31 06:17:37;;;;;;;;;;;10.40;99.90;;;;;;5108704;28;19937;-63
2022/05/31 06:20:05;;;;;;;;;;;10.40;99.90;;;;;;5109744;28;19914;-62
2022/05/31 06:22:31;;;;;;;;;;;10.40;99.90;;;;;;5113561;28;19904;-62
2022/05/31 06:24:57;;;;;;;;;;;10.40;99.90;;;;;;5110624;28;19916;-62
2022/05/31 06:27:23;;;;;;;;;;;10.40;99.90;;;;;;5110365;28;19904;-62
2022/05/31 06:29:49;;;;;;;;;;;10.50;99.90;;;;;;5112717;27;20284;-61
2022/05/31 06:32:16;;;;;;;;;;;10.60;99.90;;;;;;5110956;28;19904;-62
2022/05/31 06:34:41;;;;;;;;;;;10.60;99.90;;;;;;5110511;28;19920;-62
2022/05/31 06:37:08;;;;;;;;;;;10.60;99.90;;;;;;5112440;27;19965;-61
2022/05/31 06:39:35;;;;;;;;;;;10.70;99.90;;;;;;5101243;28;19912;-62
2022/05/31 06:42:00;;;;;;;;;;;10.70;99.90;;;;;;5094317;28;19912;-63
2022/05/31 06:44:26;;;;;;;;;;;10.80;99.90;;;;;;5092745;28;19934;-64
2022/05/31 06:46:51;;;;;;;;;;;10.80;99.90;;;;;;5093116;28;20276;-63
2022/05/31 06:49:17;;;;;;;;;;;10.80;99.90;;;;;;5119461;27;20002;-62
2022/05/31 06:57:15;;;;;;;;;;;11.00;99.90;;;;;;5113612;28;19961;-63
2022/05/31 06:59:41;;;;;;;;;;;11.00;99.90;;;;;;5113077;28;19911;-63
2022/05/31 07:02:06;;;;;;;;;;;11.20;99.90;;;;;;5111107;28;19904;-62
2022/05/31 07:04:34;;;;;;;;;;;11.20;99.90;;;;;;5109868;28;19912;-63
2022/05/31 07:07:00;;;;;;;;;;;11.30;99.90;;;;;;5110335;28;19911;-64
2022/05/31 07:09:26;;;;;;;;;;;11.40;99.90;;;;;;5113036;27;19904;-63
2022/05/31 07:11:51;;;;;;;;;;;11.50;99.90;;;;;;5113349;28;19908;-62
2022/05/31 07:14:17;;;;;;;;;;;11.70;99.90;;;;;;5112975;28;19904;-63
2022/05/31 07:16:42;;;;;;;;;;;12.10;99.90;;;;;;5112180;28;19953;-63
2022/05/31 07:19:07;;;;;;;;;;;12.20;99.90;;;;;;5112840;28;19904;-64
2022/05/31 07:21:33;;;;;;;;;;;12.40;99.90;;;;;;5112961;28;19904;-62
2022/05/31 07:23:59;;;;;;;;;;;12.70;99.90;;;;;;5112722;28;19938;-62
2022/05/31 07:26:25;;;;;;;;;;;12.90;99.90;;;;;;5112644;28;19903;-63
2022/05/31 07:28:50;;;;;;;;;;;13.00;99.90;;;;;;5112867;28;20339;-62
2022/05/31 07:31:16;;;;;;;;;;;13.10;99.90;;;;;;5112677;28;20420;-62
2022/05/31 07:33:41;;;;;;;;;;;13.30;99.90;;;;;;5111442;28;19915;-62
2022/05/31 07:36:07;;;;;;;;;;;13.40;99.90;;;;;;5112083;28;19904;-63
2022/05/31 07:38:33;;;;;;;;;;;13.50;99.90;;;;;;5112389;28;19999;-63
2022/05/31 07:40:59;;;;;;;;;;;13.60;99.90;;;;;;5112554;28;20010;-61
2022/05/31 07:43:24;;;;;;;;;;;13.70;99.90;;;;;;5112491;28;20420;-62
2022/05/31 07:45:50;;;;;;;;;;;;;;;;;;5112344;28;19908;-61
2022/05/31 07:48:16;;;;;;;;;;;13.80;99.90;;;;;;5112260;28;19905;-62
2022/05/31 07:50:41;;;;;;;;;;;13.80;99.90;;;;;;5111852;28;19908;-62
2022/05/31 07:53:07;;;;;;;;;;;14.10;99.90;;;;;;5112219;28;19903;-61
2022/05/31 07:55:32;;;;;;;;;;;14.50;99.90;;;;;;5112318;28;19903;-62
2022/05/31 08:00:42;;;;;;;;;;;16.30;99.90;;;;;;5111848;28;20322;-62
2022/05/31 08:03:08;;;;;;;;;;;17.20;99.90;;;;;;5112088;28;20352;-62
2022/05/31 08:05:37;;;;;;;;;;;18.00;99.90;;;;;;5111711;28;19998;-62
2022/05/31 08:08:03;;;;;;;;;;;18.50;99.90;;;;;;5111823;28;20705;-62
2022/05/31 08:10:29;;;;;;;;;;;18.70;99.90;;;;;;5111863;28;19903;-61
2022/05/31 08:12:54;;;;;;;;;;;18.50;99.90;;;;;;5111459;28;19903;-60
2022/05/31 08:15:20;;;;;;;;;;;18.40;99.90;;;;;;5111553;28;19919;-62
2022/05/31 08:17:46;;;;;;;;;;;19.10;99.90;;;;;;5111657;28;20006;-60
2022/05/31 08:20:12;;;;;;;;;;;19.50;99.90;;;;;;5096148;28;19907;-64
2022/05/31 08:22:38;;;;;;;;;;;20.10;99.90;;;;;;5111326;28;19908;-62
2022/05/31 08:25:04;;;;;;;;;;;21.20;98.60;;;;;;5111098;28;19947;-63
2022/05/31 08:27:29;;;;;;;;;;;22.10;97.00;;;;;;5109531;28;20321;-63
2022/05/31 08:29:55;;;;;;;;;;;23.00;95.00;;;;;;5111662;28;19982;-63
2022/05/31 08:32:20;;;;;;;;;;;23.20;94.30;;;;;;5111779;28;19907;-64
2022/05/31 08:34:47;;;;;;;;;;;22.80;91.90;;;;;;5111138;28;20269;-64
2022/05/31 08:37:13;;;;;;;;;;;22.00;93.60;;;;;;5111545;28;19908;-64
2022/05/31 08:39:38;;;;;;;;;;;21.00;95.40;;;;;;5110079;28;19908;-64
2022/05/31 08:42:06;;;;;;;;;;;20.60;98.60;;;;;;5104900;28;19907;-64
2022/05/31 08:44:31;;;;;;;;;;;19.40;99.60;;;;;;5107973;28;19915;-65
2022/05/31 08:47:03;;;;;;;;;;;18.80;99.90;;;;;;5110974;28;20385;-65
2022/05/31 08:52:47;;;;;;;;;;;18.20;99.90;;;;;;5110274;28;19910;-64
2022/05/31 08:58:05;;;;;;;;;;;17.00;99.90;;;;;;5111808;28;19999;-64
2022/05/31 09:00:33;;;;;;;;;;;16.60;99.90;;;;;;5111407;28;19911;-63
2022/05/31 09:03:17;;;;;;;;;;;16.20;99.90;;;;;;5111468;28;19927;-63
2022/05/31 09:05:47;;;;;;;;;;;16.00;99.90;;;;;;5110702;28;19908;-63
2022/05/31 09:08:16;;;;;;;;;;;15.90;99.90;;;;;;5111211;28;20291;-63
2022/05/31 09:10:42;;;;;;;;;;;15.80;99.90;;;;;;5109442;28;19911;-63
2022/05/31 09:13:27;;;;;;;;;;;15.90;99.90;;;;;;5108072;28;19903;-61
2022/05/31 09:15:54;;;;;;;;;;;16.20;99.90;;;;;;5109652;28;19954;-61
2022/05/31 09:18:38;;;;;;;;;;;16.90;99.90;;;;;;5111046;28;20374;-61
2022/05/31 09:21:06;;;;;;;;;;;17.60;99.90;;;;;;5110880;28;19943;-61
2022/05/31 09:23:34;;;;;;;;;;;17.70;99.90;;;;;;5109732;28;19918;-61
2022/05/31 09:26:09;;;;;;;;;;;17.70;99.90;;;;;;5107917;28;19930;-61
2022/05/31 09:28:42;;;;;;;;;;;17.30;99.90;;;;;;5108639;28;20275;-60
2022/05/31 09:31:27;;;;;;;;;;;16.80;99.90;;;;;;5110683;28;19915;-61
2022/05/31 09:34:01;;;;;;;;;;;16.60;99.90;;;;;;5109650;28;19919;-62
2022/05/31 09:36:37;;;;;;;;;;;16.50;99.90;;;;;;5110713;28;19911;-61
2022/05/31 09:39:03;;;;;;;;;;;17.20;99.90;;;;;;5110511;28;19903;-61
2022/05/31 09:41:28;;;;;;;;;;;18.80;99.90;;;;;;5110938;28;19954;-61
2022/05/31 09:43:54;;;;;;;;;;;21.40;99.90;;;;;;5110727;28;19916;-61
2022/05/31 09:46:30;;;;;;;;;;;23.80;95.40;;;;;;5110650;28;19904;-62
2022/05/31 09:48:56;;;;;;;;;;;23.20;82.10;;;;;;5110723;28;19962;-62
2022/05/31 09:51:28;;;;;;;;;;;22.00;81.40;;;;;;5110247;28;19958;-62
2022/05/31 09:59:26;;;;;;;;;;;18.90;91.20;;;;;;5115218;28;19929;-62
2022/05/31 10:01:52;;;;;;;;;;;18.00;95.00;;;;;;5114678;28;19957;-62
2022/05/31 10:04:23;;;;;;;;;;;17.40;99.90;;;;;;5114779;28;19923;-62
2022/05/31 10:06:59;;;;;;;;;;;16.90;99.90;;;;;;5112909;28;19990;-62
2022/05/31 10:09:36;;;;;;;;;;;16.50;99.90;;;;;;5114294;28;19903;-62
2022/05/31 10:12:13;;;;;;;;;;;16.20;99.90;;;;;;5114436;27;19915;-63
2022/05/31 10:14:44;;;;;;;;;;;15.90;99.90;;;;;;5114190;28;19914;-66
2022/05/31 10:17:33;;;;;;;;;;;15.90;99.90;;;;;;5114316;28;19904;-67
2022/05/31 10:20:12;;;;;;;;;;;15.90;99.90;;;;;;5105645;28;19949;-63
2022/05/31 10:22:39;;;;;;;;;;;16.10;99.90;;;;;;5113819;28;19987;-64
2022/05/31 10:25:18;;;;;;;;;;;16.10;99.90;;;;;;5110887;28;19912;-64
2022/05/31 10:27:44;;;;;;;;;;;16.00;99.90;;;;;;5117732;27;20287;-65
2022/05/31 10:30:15;;;;;;;;;;;16.00;99.90;;;;;;5119018;27;19907;-64
2022/05/31 10:32:48;;;;;;;;;;;16.00;99.90;;;;;;5110921;28;19914;-67
2022/05/31 10:35:24;;;;;;;;;;;16.10;99.90;;;;;;5113490;28;20017;-63
2022/05/31 10:38:09;;;;;;;;;;;16.40;99.90;;;;;;5113956;28;19986;-65
2022/05/31 10:40:43;;;;;;;;;;;17.10;99.90;;;;;;5113915;28;20335;-67
2022/05/31 10:43:12;;;;;;;;;;;22.30;96.00;;;;;;5113963;28;19916;-67
2022/05/31 10:45:38;;;;;;;;;;;26.20;75.40;;;;;;5113525;28;19999;-69
2022/05/31 10:48:03;;;;;;;;;;;27.50;64.80;;;;;;5095422;28;19908;-69
2022/05/31 10:50:33;;;;;;;;;;;28.20;49.40;;;;;;5113796;28;19912;-66
2022/05/31 10:53:14;;;;;;;;;;;25.10;49.40;;;;;;5114001;28;19914;-64
2022/05/31 10:55:42;;;;;;;;;;;24.50;55.20;;;;;;5113038;28;19904;-66
2022/05/31 10:58:11;;;;;;;;;;;27.10;53.60;;;;;;5110479;28;20356;-68
2022/05/31 11:00:44;;;;;;;;;;;27.90;46.90;;;;;;5110378;28;19991;-67
2022/05/31 11:03:19;;;;;;;;;;;28.50;44.10;;;;;;5109942;28;20388;-67
2022/05/31 11:05:47;;;;;;;;;;;28.60;38.00;;;;;;5112996;28;20245;-69
2022/05/31 11:11:29;;;;;;;;;;;28.40;41.00;;;;;;5113461;28;19910;-66
2022/05/31 11:14:06;;;;;;;;;;;25.70;36.50;;;;;;5109077;28;19998;-69
2022/05/31 11:16:37;;;;;;;;;;;24.70;47.60;;;;;;5109980;28;19911;-65
2022/05/31 11:19:24;;;;;;;;;;;26.40;41.80;;;;;;5109672;28;20352;-66
2022/05/31 11:21:52;;;;;;;;;;;29.80;41.20;;;;;;5078340;28;19903;-68
2022/05/31 11:24:30;;;;;;;;;;;30.90;33.50;;;;;;5108701;28;19922;-68
2022/05/31 11:27:18;;;;;;;;;;;32.00;29.40;;;;;;5110320;28;19904;-67
2022/05/31 11:30:03;;;;;;;;;;;31.50;28.40;;;;;;5110419;28;19908;-67
2022/05/31 11:32:55;;;;;;;;;;;28.80;28.60;;;;;;5109655;27;19915;-67
2022/05/31 11:35:20;;;;;;;;;;;26.10;35.10;;;;;;5105132;28;19916;-67
2022/05/31 11:37:56;;;;;;;;;;;24.80;38.30;;;;;;5109829;28;19910;-68
2022/05/31 11:40:44;;;;;;;;;;;23.20;38.50;;;;;;5109000;28;20010;-68
2022/05/31 11:43:09;;;;;;;;;;;22.60;44.20;;;;;;5109165;28;19988;-68
2022/05/31 11:45:53;;;;;;;;;;;21.50;49.10;;;;;;5109335;28;19935;-67
2022/05/31 11:48:25;;;;;;;;;;;20.60;56.80;;;;;;5109329;28;19998;-66
2022/05/31 11:51:09;;;;;;;;;;;19.80;64.00;;;;;;5109548;28;19914;-67
2022/05/31 11:53:43;;;;;;;;;;;19.30;69.20;;;;;;5109275;28;19999;-64
2022/05/31 11:56:13;;;;;;;;;;;19.20;73.60;;;;;;5109317;28;19919;-66
2022/05/31 11:58:45;;;;;;;;;;;19.10;72.40;;;;;;5109617;28;19911;-65
2022/05/31 12:01:20;;;;;;;;;;;21.10;70.50;;;;;;5108010;28;19915;-66
2022/05/31 12:04:04;;;;;;;;;;;21.80;64.20;;;;;;5109472;28;20347;-68
2022/05/31 12:06:32;;;;;;;;;;;21.70;62.70;;;;;;5109259;28;19914;-68
2022/05/31 12:09:02;;;;;;;;;;;21.20;63.10;;;;;;5109522;28;19910;-67
2022/05/31 12:11:40;;;;;;;;;;;21.10;69.10;;;;;;5111036;28;19915;-66
2022/05/31 12:14:09;;;;;;;;;;;20.60;65.40;;;;;;5109436;28;19903;-66
2022/05/31 12:16:36;;;;;;;;;;;21.40;68.70;;;;;;5107573;28;20326;-65
2022/05/31 12:19:09;;;;;;;;;;;22.40;65.50;;;;;;5108802;28;19907;-66
2022/05/31 12:21:40;;;;;;;;;;;24.10;53.50;;;;;;5108810;28;19949;-66
2022/05/31 12:24:13;;;;;;;;;;;25.10;52.10;;;;;;5108705;28;20264;-65
2022/05/31 12:26:38;;;;;;;;;;;25.20;46.40;;;;;;5108777;28;20378;-66
2022/05/31 12:29:04;;;;;;;;;;;23.80;43.60;;;;;;5108772;28;19957;-65
2022/05/31 12:31:30;;;;;;;;;;;22.30;49.30;;;;;;5108861;28;19911;-66
2022/05/31 12:34:11;;;;;;;;;;;20.90;55.80;;;;;;5108771;28;19919;-65
2022/05/31 12:36:55;;;;;;;;;;;20.00;82.00;;;;;;5108818;28;20057;-65
2022/05/31 12:39:24;;;;;;;;;;;19.80;83.00;;;;;;5109035;28;19973;-65
2022/05/31 12:41:51;;;;;;;;;;;20.20;82.50;;;;;;5108965;28;19904;-66
2022/05/31 12:44:30;;;;;;;;;;;20.20;86.50;;;;;;5108496;28;19916;-67
2022/05/31 12:47:15;;;;;;;;;;;20.20;88.10;;;;;;5108691;28;19929;-66
2022/05/31 12:50:04;;;;;;;;;;;19.90;87.80;;;;;;5108311;28;20411;-66
2022/05/31 12:55:20;;;;;;;;;;;19.30;90.40;;;;;;5108772;28;19956;-67
2022/05/31 13:00:47;;;;;;;;;;;18.20;95.00;;;;;;5108379;28;20012;-67
2022/05/31 13:03:31;;;;;;;;;;;18.20;92.70;;;;;;5108017;28;20260;-66
2022/05/31 13:05:58;;;;;;;;;;;19.00;92.90;;;;;;5108113;28;20023;-67
2022/05/31 13:08:43;;;;;;;;;;;19.30;87.20;;;;;;5108126;28;19904;-66
2022/05/31 13:19:37;;;;;;;;;;;24.20;72.00;;;;;;5108273;28;19914;-70
2022/05/31 13:22:05;;;;;;;;;;;22.90;64.10;;;;;;5107998;28;19911;-68
2022/05/31 13:24:33;;;;;;;;;;;22.20;68.20;;;;;;5106238;28;19951;-66
2022/05/31 13:27:00;;;;;;;;;;;20.80;71.20;;;;;;5108001;28;20287;-69
2022/05/31 13:29:25;;;;;;;;;;;20.00;75.90;;;;;;5107798;28;19965;-68
2022/05/31 13:31:55;;;;;;;;;;;19.50;72.80;;;;;;5109425;28;20710;-69
2022/05/31 13:34:42;;;;;;;;;;;19.70;82.30;;;;;;5111874;28;19923;-69
2022/05/31 13:37:18;;;;;;;;;;;20.00;76.20;;;;;;5111518;28;20325;-68
2022/05/31 13:39:45;;;;;;;;;;;19.70;78.40;;;;;;5111924;28;20387;-69
2022/05/31 13:42:36;;;;;;;;;;;20.70;77.10;;;;;;5111674;28;19904;-69
2022/05/31 13:45:04;;;;;;;;;;;21.80;73.00;;;;;;5107159;28;19916;-68
2022/05/31 13:47:30;;;;;;;;;;;22.90;65.20;;;;;;5111938;28;19904;-69
2022/05/31 13:50:03;;;;;;;;;;;23.90;55.50;;;;;;5111500;28;19954;-68
2022/05/31 13:52:31;;;;;;;;;;;24.40;55.90;;;;;;5111648;28;20384;-69
2022/05/31 13:55:09;;;;;;;;;;;24.90;55.10;;;;;;5111362;28;19934;-69
2022/05/31 13:57:34;;;;;;;;;;;24.70;55.00;;;;;;5111239;28;19915;-69
2022/05/31 14:00:00;;;;;;;;;;;22.80;56.30;;;;;;5111211;28;19912;-68
2022/05/31 14:02:49;;;;;;;;;;;22.10;59.30;;;;;;5111388;28;20010;-68
2022/05/31 14:05:22;;;;;;;;;;;22.20;57.10;;;;;;5110919;28;19915;-67
2022/05/31 14:07:50;;;;;;;;;;;22.20;57.60;;;;;;5111217;28;20329;-68
2022/05/31 14:10:16;;;;;;;;;;;21.80;60.40;;;;;;5111151;28;19904;-67
2022/05/31 14:12:42;;;;;;;;;;;21.50;62.80;;;;;;5111238;28;19912;-67
2022/05/31 14:15:19;;;;;;;;;;;22.10;62.10;;;;;;5110921;28;19912;-66
2022/05/31 14:17:45;;;;;;;;;;;22.60;59.40;;;;;;5110820;28;19911;-66
2022/05/31 14:20:16;;;;;;;;;;;22.90;57.90;;;;;;5110461;28;19904;-67
2022/05/31 14:22:42;;;;;;;;;;;22.60;54.70;;;;;;5110906;28;19951;-67
2022/05/31 14:25:09;;;;;;;;;;;22.70;55.70;;;;;;5110804;27;19999;-67
2022/05/31 14:27:38;;;;;;;;;;;22.80;56.90;;;;;;5111287;28;19914;-67
2022/05/31 14:30:14;;;;;;;;;;;22.50;59.20;;;;;;5111264;28;19907;-68
2022/05/31 14:32:45;;;;;;;;;;;22.40;58.40;;;;;;5111070;28;19942;-67
2022/05/31 14:35:14;;;;;;;;;;;22.00;60.30;;;;;;5110834;27;19955;-67
2022/05/31 14:37:44;;;;;;;;;;;21.10;60.90;;;;;;5110936;28;20261;-67
2022/05/31 14:40:26;;;;;;;;;;;20.60;62.10;;;;;;5111120;28;19957;-68
2022/05/31 14:42:57;;;;;;;;;;;20.50;63.50;;;;;;5110317;28;19946;-68
2022/05/31 14:45:28;;;;;;;;;;;20.50;65.90;;;;;;5110898;28;20014;-68
2022/05/31 14:47:53;;;;;;;;;;;20.20;67.10;;;;;;5110627;28;19912;-68
2022/05/31 14:50:29;;;;;;;;;;;19.90;66.90;;;;;;5110269;28;20295;-67
2022/05/31 14:52:56;;;;;;;;;;;19.10;70.40;;;;;;5110717;28;20002;-68
2022/05/31 14:55:22;;;;;;;;;;;18.90;73.20;;;;;;5110374;28;20375;-67
2022/05/31 15:00:42;;;;;;;;;;;19.40;77.10;;;;;;5110256;28;19915;-67
2022/05/31 15:03:13;;;;;;;;;;;19.40;78.80;;;;;;5110241;28;19904;-68
2022/05/31 15:05:39;;;;;;;;;;;18.80;77.10;;;;;;5110390;28;19908;-65
2022/05/31 15:08:04;;;;;;;;;;;18.60;83.30;;;;;;5109878;28;19908;-66
2022/05/31 15:10:32;;;;;;;;;;;18.40;81.00;;;;;;5093077;28;20255;-66
2022/05/31 15:21:15;;;;;;;;;;;18.00;85.70;;;;;;5109118;28;19984;-65
2022/05/31 15:23:41;;;;;;;;;;;17.60;85.70;;;;;;5109675;28;19951;-66